TAF Text Data
IDs:
Format:
Raw Decoded Include METAR

Data at: 2214 UTC 15 Oct 2018

TAF for:KAUS (Austin/Bergstrom Int, TX, US) issued at 2135 UTC 15 Oct 2018
Text:KAUS 152135Z 1522/1624 35017G27KT 6SM -SHRA BR OVC014
Forecast period:2200 UTC 15 October 2018 to 0000 UTC 16 October 2018
Forecast type:FROM: standard forecast or significant change
Winds:from the N (350 degrees) at 20 MPH (17 knots; 8.7 m/s) gusting to 31 MPH (27 knots; 13.9 m/s)
Visibility: 6 sm ( 10 km)
Ceiling:1400 feet AGL
Clouds: overcast cloud deck at 1400 feet AGL
Weather:-SHRA BR (light rain showers, mist)
Text:FM160000 36017G27KT P6SM VCSH OVC010
Forecast period:0000 to 0200 UTC 16 October 2018
Forecast type:FROM: standard forecast or significant change
Winds:from the N (360 degrees) at 20 MPH (17 knots; 8.7 m/s) gusting to 31 MPH (27 knots; 13.9 m/s)
Visibility:6 or more sm (10+ km)
Ceiling:1000 feet AGL
Clouds: overcast cloud deck at 1000 feet AGL
Weather:VCSH (showers in vicinity)
Text:FM160200 36027KT 5SM BR VCSH OVC009
Forecast period:0200 UTC 16 October 2018 to 0000 UTC 17 October 2018
Forecast type:FROM: standard forecast or significant change
Winds:from the N (360 degrees) at 31 MPH (27 knots; 13.9 m/s)
Visibility: 5 sm ( 8 km)
Ceiling:900 feet AGL
Clouds: overcast cloud deck at 900 feet AGL
Weather:BR VCSH (mist, showers in vicinity)